Time;durP1;ratioP1;P1;durP2;ratioP2;P2;SDS_P1;SDS_P2;PMS_P1;PMS_P2;Temp;Humidity;BMP_temperature;BMP_pressure;BME280_temperature;BME280_humidity;BME280_pressure;Samples;Min_cycle;Max_cycle;Signal;HPM_P1;HPM_P2
2021/12/20 00:01:00;;;;;;;7.57;5.15;;;;;;;-2.11;100.00;93675.16;2112360;28;20027;-86
2021/12/20 00:02:02;;;;;;;9.70;5.53;;;;;;;-2.13;100.00;93684.41;2107534;27;20016;-87
2021/12/20 00:03:04;;;;;;;9.25;6.22;;;;;;;-2.15;100.00;93686.56;2107300;28;20111;-86
2021/12/20 00:04:05;;;;;;;8.43;5.60;;;;;;;-2.24;100.00;93686.66;2101956;28;20024;-88
2021/12/20 00:05:07;;;;;;;9.02;5.45;;;;;;;-2.22;100.00;93691.59;2099275;28;20020;-86
2021/12/20 00:06:09;;;;;;;9.43;5.63;;;;;;;-2.21;100.00;93690.50;2100971;27;20021;-87
2021/12/20 00:07:10;;;;;;;10.98;5.93;;;;;;;-2.20;100.00;93682.31;2099494;28;20016;-86
2021/12/20 00:08:11;;;;;;;9.77;5.88;;;;;;;-2.21;100.00;93680.03;2096529;28;20116;-86
2021/12/20 00:09:13;;;;;;;15.18;5.90;;;;;;;-2.16;100.00;93685.81;2096821;28;20084;-86
2021/12/20 00:10:14;;;;;;;7.97;4.75;;;;;;;-2.16;100.00;93679.81;2103267;28;20034;-86
2021/12/20 00:11:15;;;;;;;11.13;5.70;;;;;;;-2.19;100.00;93681.25;2095509;28;20025;-86
2021/12/20 00:12:16;;;;;;;10.65;5.78;;;;;;;-2.12;100.00;93686.72;2106633;28;20065;-87
2021/12/20 00:13:19;;;;;;;9.65;6.13;;;;;;;-2.12;100.00;93686.72;2103708;28;20460;-85
2021/12/20 00:14:20;;;;;;;11.70;6.18;;;;;;;-2.05;100.00;93680.97;2105236;28;20450;-86
2021/12/20 00:15:22;;;;;;;11.05;5.85;;;;;;;-2.10;100.00;93674.06;2105222;28;20024;-85
2021/12/20 00:16:29;;;;;;;11.55;5.53;;;;;;;-2.21;100.00;93672.94;2110339;28;20015;-87
2021/12/20 00:17:34;;;;;;;10.63;5.80;;;;;;;-2.15;100.00;93676.91;2101007;28;20484;-85
2021/12/20 00:18:39;;;;;;;11.65;5.80;;;;;;;-2.08;100.00;93671.88;2099550;28;20028;-87
2021/12/20 00:19:47;;;;;;;13.23;6.22;;;;;;;-1.88;100.00;93666.94;2097369;28;20048;-86
2021/12/20 00:20:53;;;;;;;14.95;5.85;;;;;;;-2.00;100.00;93670.28;2099312;28;20024;-87
2021/12/20 00:21:54;;;;;;;10.85;6.00;;;;;;;-2.06;100.00;93672.34;2107707;27;20028;-86
2021/12/20 00:23:00;;;;;;;10.95;6.15;;;;;;;-2.07;100.00;93668.16;2114840;28;20027;-85
2021/12/20 00:24:02;;;;;;;13.35;6.60;;;;;;;-2.04;100.00;93672.78;2103735;28;20107;-87
2021/12/20 00:25:04;;;;;;;12.32;6.32;;;;;;;-1.96;100.00;93679.03;2105033;28;20042;-84
2021/12/20 00:26:20;;;;;;;10.50;6.15;;;;;;;-2.04;100.00;93680.63;2098576;28;20060;-85
2021/12/20 00:27:25;;;;;;;10.80;5.68;;;;;;;-2.03;100.00;93678.78;2098928;28;20052;-86
2021/12/20 00:28:27;;;;;;;15.75;6.47;;;;;;;-1.96;100.00;93678.28;2105008;28;20116;-87
2021/12/20 00:29:34;;;;;;;11.07;5.20;;;;;;;-1.89;100.00;93666.19;2098924;28;20025;-87
2021/12/20 00:30:48;;;;;;;12.38;6.10;;;;;;;-1.80;100.00;93658.22;2100376;28;20024;-87
2021/12/20 00:31:49;;;;;;;14.70;6.63;;;;;;;-1.57;100.00;93654.13;2102732;28;20032;-85
2021/12/20 00:32:50;;;;;;;13.13;6.35;;;;;;;-1.66;100.00;93655.31;2104598;28;20048;-85
2021/12/20 00:33:51;;;;;;;11.75;6.13;;;;;;;-1.61;100.00;93653.25;2097905;28;20369;-87
2021/12/20 00:34:52;;;;;;;11.43;6.10;;;;;;;-1.57;100.00;93656.75;2102412;28;20028;-86
2021/12/20 00:35:54;;;;;;;10.98;5.82;;;;;;;-1.63;100.00;93660.66;2096270;28;20016;-87
2021/12/20 00:37:02;;;;;;;15.82;6.65;;;;;;;-1.70;100.00;93659.69;2097674;28;20027;-87
2021/12/20 00:40:54;;;;;;;10.52;5.88;;;;;;;-1.70;100.00;93655.19;2122458;27;20016;-85
2021/12/20 00:42:16;;;;;;;11.70;6.38;;;;;;;-1.64;100.00;93658.38;2113083;28;20035;-85
2021/12/20 00:43:17;;;;;;;13.57;6.57;;;;;;;-1.66;100.00;93658.69;2103900;28;20047;-87
2021/12/20 00:44:18;;;;;;;13.07;7.15;;;;;;;-1.71;100.00;93660.75;2103341;28;20019;-87
2021/12/20 00:45:25;;;;;;;12.73;6.20;;;;;;;-1.80;100.00;93656.38;2106300;28;20027;-87
2021/12/20 00:46:27;;;;;;;13.38;6.22;;;;;;;-1.78;100.00;93659.44;2097910;28;20465;-84
2021/12/20 00:47:39;;;;;;;13.82;7.00;;;;;;;-1.72;100.00;93656.59;2098491;28;20031;-87
2021/12/20 00:48:40;;;;;;;12.52;6.70;;;;;;;-1.83;100.00;93661.50;2104710;28;20030;-88
2021/12/20 00:49:41;;;;;;;13.43;6.90;;;;;;;-1.86;100.00;93670.00;2096897;28;20445;-84
2021/12/20 00:50:42;;;;;;;14.23;6.95;;;;;;;-1.84;100.00;93665.97;2095889;28;20083;-85
2021/12/20 00:51:44;;;;;;;12.07;6.68;;;;;;;-1.77;100.00;93662.81;2097150;28;20017;-87
2021/12/20 00:52:46;;;;;;;11.07;6.68;;;;;;;-1.83;100.00;93664.88;2104417;28;20026;-86
2021/12/20 00:53:51;;;;;;;15.30;7.60;;;;;;;-1.88;100.00;93661.72;2105555;28;20027;-88
2021/12/20 00:54:56;;;;;;;12.40;6.97;;;;;;;-1.91;100.00;93660.50;2107110;28;20102;-86
2021/12/20 00:56:08;;;;;;;14.68;7.20;;;;;;;-1.74;100.00;93664.03;2106275;28;20012;-88
2021/12/20 00:57:09;;;;;;;13.35;7.28;;;;;;;-1.74;100.00;93666.66;2108930;27;20027;-87
2021/12/20 00:58:15;;;;;;;12.13;6.72;;;;;;;-1.72;100.00;93661.84;2110376;28;20031;-85
2021/12/20 00:59:19;;;;;;;11.85;6.78;;;;;;;-1.75;100.00;93663.28;2106952;27;20382;-86
2021/12/20 01:00:23;;;;;;;16.77;7.32;;;;;;;-1.64;100.00;93661.75;2106831;28;20047;-85
2021/12/20 01:01:25;;;;;;;12.88;7.53;;;;;;;-1.65;100.00;93660.22;2095592;28;20053;-87
2021/12/20 01:02:28;;;;;;;15.02;7.30;;;;;;;-1.72;100.00;93667.84;2094232;28;20025;-88
2021/12/20 01:03:32;;;;;;;13.77;7.88;;;;;;;-1.74;100.00;93669.28;2102353;28;20024;-85
2021/12/20 01:04:33;;;;;;;15.35;7.30;;;;;;;-1.58;100.00;93678.03;2098972;28;20017;-88
2021/12/20 01:05:35;;;;;;;12.80;7.22;;;;;;;-1.62;100.00;93671.94;2097815;28;20077;-84
2021/12/20 01:07:16;;;;;;;17.40;7.53;;;;;;;-1.58;100.00;93670.16;2096064;28;20020;-86
2021/12/20 01:08:22;;;;;;;10.93;6.13;;;;;;;-1.61;100.00;93663.72;2113603;27;20632;-86
2021/12/20 01:09:23;;;;;;;12.02;7.13;;;;;;;-1.58;100.00;93668.31;2102282;28;20020;-85
2021/12/20 01:10:29;;;;;;;14.25;7.35;;;;;;;-1.59;100.00;93668.63;2100743;28;20025;-86
2021/12/20 01:11:37;;;;;;;16.95;8.25;;;;;;;-1.66;100.00;93663.19;2102994;28;20016;-87
2021/12/20 01:12:44;;;;;;;13.23;7.72;;;;;;;-1.63;100.00;93663.28;2098063;28;20032;-85
2021/12/20 01:13:47;;;;;;;17.38;8.20;;;;;;;-1.55;100.00;93666.91;2106107;28;20070;-85
2021/12/20 01:14:57;;;;;;;13.10;7.25;;;;;;;-1.52;100.00;93658.38;2102527;28;20024;-85
2021/12/20 01:16:16;;;;;;;;;;;;;;;-1.42;100.00;93657.19;2105371;28;20055;-85
2021/12/20 01:17:17;;;;;;;13.63;7.28;;;;;;;-1.24;100.00;93657.75;2106565;28;20797;-87
2021/12/20 01:18:20;;;;;;;12.38;6.43;;;;;;;-1.40;100.00;93653.16;2096986;28;20020;-86
2021/12/20 01:19:22;;;;;;;14.63;7.90;;;;;;;-1.46;100.00;93651.84;2098226;28;20024;-85
2021/12/20 01:20:23;;;;;;;14.45;7.90;;;;;;;-1.54;100.00;93656.09;2101058;28;20049;-85
2021/12/20 01:21:30;;;;;;;12.05;6.78;;;;;;;-1.50;100.00;93656.19;2102346;28;20705;-86
2021/12/20 01:22:33;;;;;;;14.18;6.80;;;;;;;-1.56;100.00;93660.88;2100918;28;20051;-85
2021/12/20 01:23:36;;;;;;;17.15;8.25;;;;;;;-1.47;100.00;93657.41;2097512;28;20023;-86
2021/12/20 01:24:37;;;;;;;15.38;7.60;;;;;;;-1.47;100.00;93655.56;2104046;28;20103;-85
2021/12/20 01:25:40;;;;;;;18.75;8.10;;;;;;;-1.44;100.00;93660.16;2105357;28;20107;-85
2021/12/20 01:26:54;;;;;;;15.70;7.80;;;;;;;-1.40;100.00;93657.66;2096169;28;20103;-86
2021/12/20 01:27:55;;;;;;;12.45;7.05;;;;;;;-1.30;100.00;93659.84;2103464;28;20020;-86
2021/12/20 01:28:56;;;;;;;14.63;7.97;;;;;;;-1.35;100.00;93660.06;2097726;28;20566;-86
2021/12/20 01:29:57;;;;;;;17.92;8.55;;;;;;;-1.41;100.00;93667.34;2100739;28;20496;-85
2021/12/20 01:30:59;;;;;;;19.33;8.35;;;;;;;-1.50;100.00;93673.78;2102770;28;20024;-86
2021/12/20 01:32:00;;;;;;;15.45;8.75;;;;;;;-1.46;100.00;93661.56;2106262;28;20099;-85
2021/12/20 01:33:02;;;;;;;18.02;8.80;;;;;;;-1.32;100.00;93667.25;2105914;28;20361;-86
2021/12/20 01:34:03;;;;;;;16.77;8.65;;;;;;;-1.41;100.00;93659.47;2097532;28;20064;-86
2021/12/20 01:35:05;;;;;;;14.73;7.63;;;;;;;-1.31;100.00;93664.31;2113971;28;20011;-86
2021/12/20 01:36:12;;;;;;;17.50;8.20;;;;;;;-1.32;100.00;93662.78;2095724;28;20024;-87
2021/12/20 01:37:18;;;;;;;17.40;7.38;;;;;;;-1.31;100.00;93661.69;2107083;28;20016;-87
2021/12/20 01:38:22;;;;;;;15.77;8.38;;;;;;;-1.38;100.00;93655.44;2099058;28;20017;-85
2021/12/20 01:39:25;;;;;;;17.73;8.23;;;;;;;-1.40;100.00;93658.41;2094501;28;20078;-87
2021/12/20 01:41:18;;;;;;;15.65;7.88;;;;;;;-1.41;100.00;93648.22;2098128;28;20081;-86
2021/12/20 01:42:20;;;;;;;14.65;7.25;;;;;;;-1.46;100.00;93648.44;2110001;28;20020;-85
2021/12/20 01:43:21;;;;;;;17.50;7.85;;;;;;;-1.40;100.00;93653.16;2097374;28;20440;-87
2021/12/20 01:44:27;;;;;;;17.30;8.30;;;;;;;-1.41;100.00;93649.00;2097631;28;20020;-84
2021/12/20 01:45:30;;;;;;;15.38;8.10;;;;;;;-1.41;100.00;93645.59;2113984;28;20134;-86
2021/12/20 01:46:34;;;;;;;16.98;8.55;;;;;;;-1.42;100.00;93651.94;2112680;28;20022;-85
2021/12/20 01:47:50;;;;;;;15.35;7.68;;;;;;;-1.45;100.00;93652.59;2106757;28;20106;-86
2021/12/20 01:48:55;;;;;;;22.80;9.15;;;;;;;-1.22;100.00;93643.22;2102453;28;20021;-88
2021/12/20 01:50:16;;;;;;;17.75;8.88;;;;;;;-1.25;100.00;93640.50;2101568;28;20020;-85
2021/12/20 01:52:43;;;;;;;16.10;8.60;;;;;;;-1.40;100.00;93642.69;2110378;28;20511;-86
2021/12/20 01:53:44;;;;;;;18.33;7.72;;;;;;;-1.40;100.00;93641.91;2114903;28;20078;-86
2021/12/20 01:54:46;;;;;;;17.95;8.27;;;;;;;-1.32;100.00;93641.03;2104061;28;20020;-86
2021/12/20 01:55:48;;;;;;;16.92;8.77;;;;;;;-1.31;100.00;93645.97;2104851;28;20485;-87
2021/12/20 01:56:50;;;;;;;16.15;8.43;;;;;;;-1.35;100.00;93636.47;2095555;28;20039;-87
2021/12/20 01:57:51;;;;;;;15.25;8.73;;;;;;;-1.39;100.00;93636.34;2098224;28;20129;-85
2021/12/20 01:59:06;;;;;;;14.63;8.52;;;;;;;-1.38;100.00;93632.63;2104059;28;20393;-86
2021/12/20 02:00:20;;;;;;;15.27;8.43;;;;;;;-1.30;100.00;93634.38;2107672;28;20089;-86
2021/12/20 02:01:21;;;;;;;13.23;7.15;;;;;;;-1.28;100.00;93631.41;2114128;28;20054;-88
2021/12/20 02:02:23;;;;;;;15.07;7.82;;;;;;;-1.36;100.00;93630.44;2100014;28;20889;-86
2021/12/20 02:03:24;;;;;;;21.30;7.97;;;;;;;-1.37;100.00;93628.13;2106372;28;20024;-85
2021/12/20 02:04:27;;;;;;;14.88;8.80;;;;;;;-1.34;100.00;93624.88;2112851;28;20280;-86
2021/12/20 02:06:40;;;;;;;15.00;8.88;;;;;;;-1.25;100.00;93625.53;2108648;28;20016;-86
2021/12/20 02:09:37;;;;;;;19.85;10.93;;;;;;;-1.30;100.00;93623.88;2126415;27;20186;-87
2021/12/20 02:10:40;;;;;;;19.13;10.18;;;;;;;-1.31;100.00;93617.13;2106919;28;20073;-86
2021/12/20 02:11:44;;;;;;;17.35;9.55;;;;;;;-1.19;100.00;93616.31;2098747;28;20029;-86
2021/12/20 02:12:46;;;;;;;14.07;8.27;;;;;;;-1.28;100.00;93616.44;2099698;28;20028;-86
2021/12/20 02:13:48;;;;;;;14.23;7.65;;;;;;;-1.40;100.00;93620.94;2100524;28;20031;-85
2021/12/20 02:14:49;;;;;;;11.05;7.55;;;;;;;-1.36;100.00;93606.84;2093306;28;20111;-90
2021/12/20 02:15:51;;;;;;;11.68;6.97;;;;;;;-1.36;100.00;93606.06;2096553;28;20098;-87
2021/12/20 02:16:52;;;;;;;11.75;7.25;;;;;;;-1.34;100.00;93615.13;2104909;28;20396;-87
2021/12/20 02:17:57;;;;;;;14.45;7.93;;;;;;;-1.41;100.00;93611.53;2100658;28;20040;-87
2021/12/20 02:19:12;;;;;;;14.50;8.00;;;;;;;-1.39;100.00;93609.34;2091297;28;20028;-88
2021/12/20 02:20:32;;;;;;;14.85;7.38;;;;;;;-1.28;100.00;93613.06;2094537;28;20032;-88
2021/12/20 02:21:39;;;;;;;13.13;7.22;;;;;;;-1.23;100.00;93607.59;2097164;28;20504;-88
2021/12/20 02:22:45;;;;;;;15.60;7.28;;;;;;;-1.18;100.00;93602.16;2092928;28;20025;-87
2021/12/20 02:23:50;;;;;;;10.48;6.80;;;;;;;-1.26;100.00;93603.03;2094611;28;20486;-91
2021/12/20 02:24:56;;;;;;;12.40;6.22;;;;;;;-1.28;100.00;93603.31;2103525;28;20024;-89
2021/12/20 02:26:01;;;;;;;12.55;6.72;;;;;;;-1.30;100.00;93596.91;2102259;28;20032;-90
2021/12/20 02:27:05;;;;;;;11.57;6.93;;;;;;;-1.17;100.00;93592.41;2105315;28;20059;-88
2021/12/20 02:28:18;;;;;;;11.40;6.65;;;;;;;-1.17;100.00;93585.31;2095974;28;20020;-88
2021/12/20 02:30:36;;;;;;;12.25;7.60;;;;;;;-1.32;100.00;93599.06;2094776;28;20050;-90
2021/12/20 02:36:58;;;;;;;11.13;6.95;;;;;;;-1.30;100.00;93589.78;2111675;28;20460;-91
2021/12/20 02:37:36;;;;;;;10.30;6.65;;;;;;;-1.25;100.00;93588.03;2116411;28;20019;-89
2021/12/20 02:38:48;;;;;;;11.73;6.72;;;;;;;-1.31;100.00;93590.13;2105227;28;20036;-88
2021/12/20 02:39:56;;;;;;;12.07;7.80;;;;;;;-1.33;100.00;93587.06;2106968;27;20020;-90
2021/12/20 02:41:03;;;;;;;11.65;6.90;;;;;;;-1.29;100.00;93590.56;2100369;28;20032;-88
2021/12/20 02:42:14;;;;;;;14.93;7.53;;;;;;;-1.24;100.00;93597.44;2095860;28;20041;-89
2021/12/20 02:43:17;;;;;;;;;;;;;;;-1.15;100.00;93601.47;2093528;28;20307;-89
2021/12/20 02:44:23;;;;;;;13.43;6.88;;;;;;;-1.07;100.00;93597.97;2101275;28;19908;-90
2021/12/20 02:45:30;;;;;;;10.63;6.80;;;;;;;-1.16;100.00;93597.31;2102473;28;20393;-90
2021/12/20 02:47:49;;;;;;;11.82;7.68;;;;;;;-1.16;100.00;93597.31;2104710;28;20074;-86
2021/12/20 02:48:55;;;;;;;10.85;6.93;;;;;;;-1.26;100.00;93600.41;2105576;28;20024;-89
2021/12/20 02:50:00;;;;;;;13.57;7.20;;;;;;;-1.28;100.00;93603.31;2099211;28;20474;-89
2021/12/20 02:51:07;;;;;;;11.43;7.55;;;;;;;-1.15;100.00;93598.09;2099750;28;20020;-88
2021/12/20 02:52:26;;;;;;;11.27;7.43;;;;;;;-1.13;100.00;93598.53;2103291;28;20028;-89
2021/12/20 02:53:27;;;;;;;12.13;8.02;;;;;;;-1.27;100.00;93596.25;2102123;28;20016;-89
2021/12/20 02:54:28;;;;;;;11.40;7.65;;;;;;;-1.30;100.00;93597.66;2101762;28;20078;-87
2021/12/20 02:55:30;;;;;;;13.30;7.80;;;;;;;-1.30;100.00;93592.41;2092672;28;20032;-88
2021/12/20 02:56:31;;;;;;;13.27;8.32;;;;;;;-1.36;100.00;93598.97;2103014;28;20102;-91
2021/12/20 02:57:36;;;;;;;15.90;8.45;;;;;;;-1.33;100.00;93606.19;2101310;28;20051;-89
2021/12/20 02:58:40;;;;;;;17.42;9.13;;;;;;;-1.18;100.00;93604.00;2091209;28;20016;-90
2021/12/20 02:59:41;;;;;;;19.00;9.18;;;;;;;-1.20;100.00;93606.19;2106274;28;20489;-90
2021/12/20 03:00:43;;;;;;;15.82;8.43;;;;;;;-1.12;100.00;93603.44;2105126;28;20020;-87
2021/12/20 03:02:10;;;;;;;13.05;7.95;;;;;;;-1.17;100.00;93606.28;2105630;28;20028;-86
2021/12/20 03:03:11;;;;;;;15.82;8.10;;;;;;;-1.14;100.00;93596.97;2107497;28;20051;-91
2021/12/20 03:04:12;;;;;;;12.07;7.28;;;;;;;-1.07;100.00;93586.72;2099328;28;20024;-91
2021/12/20 03:05:13;;;;;;;13.18;7.63;;;;;;;-0.99;100.00;93590.31;2101974;28;20138;-90
2021/12/20 03:06:20;;;;;;;11.68;7.60;;;;;;;-0.91;100.00;93592.06;2100178;28;20029;-87
2021/12/20 03:07:25;;;;;;;13.95;8.98;;;;;;;-0.87;100.00;93590.28;2098461;28;20020;-85
2021/12/20 03:08:26;;;;;;;12.02;7.57;;;;;;;-1.05;100.00;93598.41;2094001;28;20571;-88
2021/12/20 03:09:32;;;;;;;15.23;8.68;;;;;;;-1.15;100.00;93600.72;2090713;28;20048;-89
2021/12/20 03:10:39;;;;;;;14.55;7.93;;;;;;;-1.13;100.00;93594.03;2099144;28;20029;-85
2021/12/20 03:11:40;;;;;;;15.10;7.78;;;;;;;-1.17;100.00;93592.41;2108123;28;20048;-89
2021/12/20 03:12:49;;;;;;;17.35;8.80;;;;;;;-1.10;100.00;93598.63;2093318;28;20139;-87
2021/12/20 03:13:55;;;;;;;14.35;8.77;;;;;;;-1.03;100.00;93593.59;2094647;28;20060;-88
2021/12/20 03:15:02;;;;;;;15.93;8.60;;;;;;;-1.14;100.00;93589.91;2091571;28;20031;-87
2021/12/20 03:16:04;;;;;;;16.50;8.70;;;;;;;-1.14;100.00;93592.53;2094607;28;20536;-87
2021/12/20 03:17:06;;;;;;;15.82;8.95;;;;;;;-1.20;100.00;93590.44;2089825;28;20056;-87
2021/12/20 03:18:07;;;;;;;17.88;9.30;;;;;;;-1.19;100.00;93587.47;2098140;28;20020;-87
2021/12/20 03:19:10;;;;;;;14.52;9.05;;;;;;;-1.23;100.00;93594.47;2099769;28;20382;-89
2021/12/20 03:20:20;;;;;;;17.38;10.23;;;;;;;-1.11;100.00;93591.09;2105833;28;20043;-85
2021/12/20 03:21:24;;;;;;;17.65;9.65;;;;;;;-1.21;100.00;93589.69;2088126;28;20099;-87
2021/12/20 03:22:25;;;;;;;17.35;10.38;;;;;;;-0.96;100.00;93589.66;2078629;28;20227;-88
2021/12/20 03:23:28;;;;;;;18.55;10.40;;;;;;;-1.04;100.00;93592.06;2084474;28;20039;-88
2021/12/20 03:24:29;;;;;;;20.23;10.98;;;;;;;-1.10;100.00;93585.53;2094777;28;20021;-89
2021/12/20 03:25:31;;;;;;;15.20;8.57;;;;;;;-0.95;100.00;93596.44;2093769;28;20032;-88
2021/12/20 03:26:36;;;;;;;18.73;8.82;;;;;;;-1.06;100.00;93596.09;2087748;28;20092;-89
2021/12/20 03:27:37;;;;;;;15.73;9.32;;;;;;;-1.16;100.00;93591.31;2079877;28;20024;-89
2021/12/20 03:28:38;;;;;;;15.65;8.90;;;;;;;-1.12;100.00;93592.94;2088223;28;20052;-88
2021/12/20 03:29:40;;;;;;;14.40;8.77;;;;;;;-1.13;100.00;93594.03;2087366;28;20024;-89
2021/12/20 03:30:41;;;;;;;17.92;8.93;;;;;;;-1.12;100.00;93592.19;2075730;28;20108;-87
2021/12/20 03:31:42;;;;;;;13.23;8.27;;;;;;;-1.10;100.00;93595.22;2082113;28;20014;-87
2021/12/20 03:32:43;;;;;;;13.23;7.70;;;;;;;-1.02;100.00;93592.47;2090170;28;20113;-89
2021/12/20 03:33:46;;;;;;;16.95;8.98;;;;;;;-1.06;100.00;93588.22;2084037;28;20017;-89
2021/12/20 03:34:47;;;;;;;15.05;8.50;;;;;;;-1.10;100.00;93587.34;2094909;28;20066;-90
2021/12/20 03:35:48;;;;;;;14.70;8.57;;;;;;;-1.10;100.00;93589.97;2096487;28;20033;-87
2021/12/20 03:36:49;;;;;;;13.82;8.95;;;;;;;-1.13;100.00;93588.81;2078757;28;20018;-89
2021/12/20 03:37:50;;;;;;;13.57;8.15;;;;;;;-1.11;100.00;93589.22;2090569;28;20374;-88
2021/12/20 03:38:51;;;;;;;15.75;9.43;;;;;;;-1.18;100.00;93580.41;2101342;28;20024;-85
2021/12/20 03:39:52;;;;;;;16.25;9.32;;;;;;;-1.13;100.00;93574.94;2089254;28;20028;-87
2021/12/20 03:40:53;;;;;;;12.52;8.23;;;;;;;-1.20;100.00;93578.09;2087200;28;20040;-87
2021/12/20 03:41:54;;;;;;;16.33;8.82;;;;;;;-1.19;100.00;93576.22;2095259;28;20027;-88
2021/12/20 03:42:55;;;;;;;12.95;8.43;;;;;;;-1.22;100.00;93572.41;2093629;28;20529;-87
2021/12/20 03:43:56;;;;;;;14.48;9.48;;;;;;;-1.18;100.00;93573.28;2096527;28;20024;-87
2021/12/20 03:45:04;;;;;;;13.73;7.97;;;;;;;-1.18;100.00;93575.91;2086871;28;20029;-89
2021/12/20 03:46:11;;;;;;;14.63;8.50;;;;;;;-1.17;100.00;93572.19;2089301;28;20435;-87
2021/12/20 03:47:19;;;;;;;13.73;8.65;;;;;;;-1.07;100.00;93573.59;2093958;28;20049;-88
2021/12/20 03:48:19;;;;;;;13.75;8.65;;;;;;;-1.17;100.00;93571.44;2088217;28;20086;-89
2021/12/20 03:49:20;;;;;;;14.50;9.10;;;;;;;-1.20;100.00;93574.72;2085930;28;20531;-89
2021/12/20 03:50:24;;;;;;;16.83;9.27;;;;;;;-1.13;100.00;93580.94;2077467;28;20072;-89
2021/12/20 03:51:25;;;;;;;15.98;9.52;;;;;;;-0.94;100.00;93584.84;2088266;28;20374;-86
2021/12/20 03:52:25;;;;;;;16.70;9.38;;;;;;;-1.04;100.00;93573.69;2096161;28;20017;-90
2021/12/20 03:53:28;;;;;;;16.52;9.98;;;;;;;-0.99;100.00;93579.81;2086244;28;20028;-88
2021/12/20 03:54:43;;;;;;;14.98;9.63;;;;;;;-1.11;100.00;93570.09;2093513;28;20048;-87
2021/12/20 03:55:44;;;;;;;17.33;8.45;;;;;;;-1.17;100.00;93581.91;2086796;28;20028;-89
2021/12/20 03:56:46;;;;;;;16.23;9.77;;;;;;;-1.12;100.00;93584.31;2076061;28;20450;-87
2021/12/20 03:57:49;;;;;;;15.50;9.63;;;;;;;-0.99;100.00;93588.44;2076851;28;20036;-89
2021/12/20 03:58:51;;;;;;;14.50;9.00;;;;;;;-0.99;100.00;93579.81;2084405;28;20505;-86
2021/12/20 03:59:53;;;;;;;16.00;8.57;;;;;;;-1.01;100.00;93572.25;2084149;28;20017;-88
2021/12/20 04:00:56;;;;;;;17.00;9.90;;;;;;;-1.02;100.00;93581.22;2084701;28;20025;-88
2021/12/20 04:01:58;;;;;;;17.90;10.13;;;;;;;-0.81;100.00;93581.09;2095127;28;20029;-89
2021/12/20 04:02:59;;;;;;;15.35;9.50;;;;;;;-0.94;100.00;93569.84;2088783;28;20024;-88
2021/12/20 04:04:01;;;;;;;14.40;9.30;;;;;;;-1.02;100.00;93574.13;2086291;28;20032;-87
2021/12/20 04:05:03;;;;;;;17.85;10.93;;;;;;;-1.14;100.00;93563.69;2087190;28;20024;-89
2021/12/20 04:06:06;;;;;;;17.67;10.20;;;;;;;-1.17;100.00;93568.81;2087001;28;20025;-88
2021/12/20 04:07:09;;;;;;;14.95;10.10;;;;;;;-1.19;100.00;93558.63;2085377;28;20025;-89
2021/12/20 04:08:10;;;;;;;16.33;10.02;;;;;;;-1.21;100.00;93565.31;2089051;28;20023;-87
2021/12/20 04:09:11;;;;;;;15.93;10.48;;;;;;;-1.22;100.00;93564.56;2085733;28;20038;-87
2021/12/20 04:10:13;;;;;;;17.88;10.20;;;;;;;-1.16;100.00;93563.22;2086186;28;20022;-89
2021/12/20 04:11:14;;;;;;;14.73;9.25;;;;;;;-1.06;100.00;93562.75;2079826;28;20499;-90
2021/12/20 04:12:19;;;;;;;14.90;9.52;;;;;;;-1.05;100.00;93564.31;2076844;28;20022;-90
2021/12/20 04:13:20;;;;;;;18.75;10.30;;;;;;;-1.07;100.00;93557.84;2079831;28;20108;-90
2021/12/20 04:14:25;;;;;;;16.23;9.77;;;;;;;-1.09;100.00;93560.81;2094270;28;20505;-89
2021/12/20 04:15:31;;;;;;;15.10;10.00;;;;;;;-1.05;100.00;93555.69;2090798;28;20107;-86
2021/12/20 04:16:36;;;;;;;15.65;9.25;;;;;;;-1.08;100.00;93556.34;2088053;28;20021;-88
2021/12/20 04:17:37;;;;;;;14.52;9.52;;;;;;;-1.08;100.00;93559.72;2079671;28;20018;-89
2021/12/20 04:18:38;;;;;;;14.27;9.57;;;;;;;-1.12;100.00;93558.09;2078302;28;20590;-88
2021/12/20 04:19:39;;;;;;;15.57;10.10;;;;;;;-1.17;100.00;93559.09;2077597;28;20068;-88
2021/12/20 04:20:40;;;;;;;16.40;10.15;;;;;;;-1.17;100.00;93563.56;2087014;28;20025;-88
2021/12/20 04:21:41;;;;;;;15.20;9.63;;;;;;;-1.10;100.00;93561.13;2088522;28;20023;-92
2021/12/20 04:22:43;;;;;;;13.32;8.98;;;;;;;-1.06;100.00;93559.38;2077457;28;20022;-87
2021/12/20 04:23:47;;;;;;;15.73;10.40;;;;;;;-1.10;100.00;93558.50;2074132;28;20017;-88
2021/12/20 04:24:50;;;;;;;15.60;9.90;;;;;;;-1.00;100.00;93565.94;2089801;28;20046;-89
2021/12/20 04:25:57;;;;;;;14.65;9.77;;;;;;;-0.97;100.00;93567.88;2086879;28;20108;-89
2021/12/20 04:26:58;;;;;;;14.52;9.23;;;;;;;-1.04;100.00;93565.84;2077343;28;20025;-88
2021/12/20 04:27:59;;;;;;;18.38;9.80;;;;;;;-0.88;100.00;93565.13;2077632;28;20036;-91
2021/12/20 04:29:00;;;;;;;16.85;10.30;;;;;;;-1.01;100.00;93564.38;2083905;28;20025;-89
2021/12/20 04:30:10;;;;;;;16.33;9.10;;;;;;;-1.05;100.00;93563.56;2085757;28;20020;-87
2021/12/20 04:31:11;;;;;;;20.17;10.55;;;;;;;-0.96;100.00;93572.06;2094714;28;20068;-90
2021/12/20 04:32:12;;;;;;;16.33;9.60;;;;;;;-0.94;100.00;93564.59;2083802;28;20175;-90
2021/12/20 04:33:14;;;;;;;19.60;12.23;;;;;;;-1.04;100.00;93568.47;2075670;28;20025;-88
2021/12/20 04:34:19;;;;;;;17.42;11.23;;;;;;;-1.06;100.00;93568.00;2082581;28;20061;-85
2021/12/20 04:35:21;;;;;;;18.08;10.93;;;;;;;-1.02;100.00;93568.88;2095920;28;20028;-89
2021/12/20 04:36:38;;;;;;;21.75;11.00;;;;;;;-1.02;100.00;93568.13;2098634;28;20470;-90
2021/12/20 04:37:42;;;;;;;16.02;9.77;;;;;;;-0.90;100.00;93568.09;2094657;28;20516;-88
2021/12/20 04:38:43;;;;;;;18.13;10.88;;;;;;;-0.83;100.00;93570.16;2085911;28;20563;-89
2021/12/20 04:39:44;;;;;;;16.15;9.88;;;;;;;-0.91;100.00;93561.31;2090515;28;20024;-88
2021/12/20 04:40:45;;;;;;;19.90;12.15;;;;;;;-0.91;100.00;93571.06;2085414;28;20033;-85
2021/12/20 04:41:50;;;;;;;16.30;10.57;;;;;;;-1.00;100.00;93567.81;2086689;28;20025;-87
2021/12/20 04:42:57;;;;;;;17.35;10.35;;;;;;;-1.06;100.00;93567.25;2086225;28;20021;-89
2021/12/20 04:44:02;;;;;;;14.68;9.60;;;;;;;-1.05;100.00;93569.56;2077769;28;20096;-88
2021/12/20 04:45:05;;;;;;;17.75;9.95;;;;;;;-1.01;100.00;93574.88;2078742;28;20108;-89
2021/12/20 04:46:08;;;;;;;18.45;11.05;;;;;;;-0.95;100.00;93572.81;2079057;28;20025;-90
2021/12/20 04:47:15;;;;;;;16.40;10.30;;;;;;;-0.97;100.00;93575.00;2079284;28;20473;-88
2021/12/20 04:48:18;;;;;;;19.30;11.15;;;;;;;-0.90;100.00;93575.22;2091857;28;20025;-89
2021/12/20 04:49:19;;;;;;;16.30;11.10;;;;;;;-0.93;100.00;93578.47;2086647;28;20120;-89
2021/12/20 04:50:21;;;;;;;16.85;11.05;;;;;;;-0.98;100.00;93576.09;2087564;28;20120;-87
2021/12/20 04:51:22;;;;;;;15.93;10.25;;;;;;;-0.96;100.00;93579.94;2095661;28;20048;-88
2021/12/20 04:52:24;;;;;;;15.73;10.45;;;;;;;-0.99;100.00;93571.94;2087425;28;20481;-89
2021/12/20 04:53:25;;;;;;;18.55;10.75;;;;;;;-1.05;100.00;93581.91;2082729;28;20045;-87
2021/12/20 04:54:26;;;;;;;16.80;10.63;;;;;;;-1.05;100.00;93580.06;2087730;28;20037;-87
2021/12/20 04:55:28;;;;;;;17.00;10.32;;;;;;;-1.05;100.00;93574.81;2086392;28;20025;-88
2021/12/20 04:56:29;;;;;;;16.80;10.32;;;;;;;-1.05;100.00;93580.06;2088635;28;20088;-86
2021/12/20 04:57:30;;;;;;;17.92;10.80;;;;;;;-1.07;100.00;93581.47;2086154;28;20021;-88
2021/12/20 04:58:31;;;;;;;18.38;11.25;;;;;;;-1.06;100.00;93586.38;2081757;28;20025;-87
2021/12/20 04:59:32;;;;;;;20.27;11.32;;;;;;;-1.11;100.00;93580.59;2095806;28;20063;-87
2021/12/20 05:00:35;;;;;;;17.17;10.52;;;;;;;-1.08;100.00;93583.31;2088283;28;20017;-87
2021/12/20 05:01:36;;;;;;;17.80;11.07;;;;;;;-1.09;100.00;93587.06;2079224;28;20467;-88
2021/12/20 05:02:38;;;;;;;17.95;11.48;;;;;;;-1.06;100.00;93586.38;2077779;28;20013;-88
2021/12/20 05:03:43;;;;;;;17.17;11.05;;;;;;;-1.05;100.00;93587.91;2075811;28;20018;-87
2021/12/20 05:04:44;;;;;;;17.33;10.38;;;;;;;-1.10;100.00;93593.41;2076848;28;20037;-87
2021/12/20 05:05:45;;;;;;;20.10;11.20;;;;;;;-1.00;100.00;93588.78;2075882;28;20497;-86
2021/12/20 05:06:48;;;;;;;17.80;11.40;;;;;;;-1.01;100.00;93588.00;2077925;28;20021;-87
2021/12/20 05:07:51;;;;;;;20.70;11.93;;;;;;;-1.05;100.00;93582.69;2077390;28;20038;-86
2021/12/20 05:08:55;;;;;;;18.45;11.57;;;;;;;-1.13;100.00;93588.81;2079296;28;20386;-89
2021/12/20 05:10:00;;;;;;;17.08;10.85;;;;;;;-1.08;100.00;93587.81;2075809;28;20049;-86